createdAt,value
2023-05-15T00:07:26.856Z,12.75
2023-05-15T00:17:33.488Z,12.59
2023-05-15T00:27:40.033Z,12.69
2023-05-15T00:37:47.138Z,12.50
2023-05-15T00:47:54.958Z,12.77
2023-05-15T00:58:02.713Z,12.65
2023-05-15T01:08:36.527Z,13.04
2023-05-15T01:18:43.125Z,13.44
2023-05-15T01:29:25.111Z,13.01
2023-05-15T01:39:34.500Z,13.01
2023-05-15T01:49:41.007Z,12.84
2023-05-15T01:59:47.595Z,13.05
2023-05-15T02:09:54.372Z,13.40
2023-05-15T02:19:59.879Z,12.98
2023-05-15T02:30:28.080Z,12.88
2023-05-15T02:40:35.863Z,13.29
2023-05-15T02:50:42.776Z,13.24
2023-05-15T03:00:49.415Z,13.26
2023-05-15T03:10:56.165Z,13.09
2023-05-15T03:21:02.634Z,13.06
2023-05-15T03:31:12.289Z,13.15
2023-05-15T03:41:18.804Z,12.99
2023-05-15T03:51:25.675Z,12.99
2023-05-15T04:01:32.416Z,13.01
2023-05-15T04:11:39.004Z,13.06
2023-05-15T04:21:45.473Z,13.18
2023-05-15T04:31:52.137Z,13.33
2023-05-15T04:41:58.633Z,13.15
2023-05-15T04:52:05.586Z,13.40
2023-05-15T05:02:12.123Z,13.33
2023-05-15T05:12:18.688Z,13.15
2023-05-15T05:22:25.349Z,13.63
2023-05-15T05:32:31.833Z,13.48
2023-05-15T05:42:38.314Z,13.63
2023-05-15T05:52:44.864Z,13.61
2023-05-15T06:02:54.342Z,13.56
2023-05-15T06:13:00.866Z,13.63
2023-05-15T06:23:07.315Z,13.75
2023-05-15T06:33:13.837Z,13.65
2023-05-15T06:43:20.349Z,13.90
2023-05-15T06:53:26.999Z,14.38
2023-05-15T07:03:33.525Z,14.17
2023-05-15T07:13:40.316Z,14.43
2023-05-15T07:23:46.928Z,14.30
2023-05-15T07:33:53.446Z,14.40
2023-05-15T07:43:59.896Z,14.21
2023-05-15T07:54:07.082Z,14.48
2023-05-15T08:04:13.682Z,14.40
2023-05-15T08:14:20.233Z,14.57
2023-05-15T08:24:26.803Z,14.62
2023-05-15T08:34:33.315Z,14.44
2023-05-15T08:44:40.771Z,15.16
2023-05-15T08:54:49.243Z,15.53
2023-05-15T09:04:55.767Z,15.76
2023-05-15T09:15:15.153Z,15.95
2023-05-15T09:25:41.853Z,15.80
2023-05-15T09:35:48.327Z,15.71
2023-05-15T09:45:54.943Z,15.52
2023-05-15T09:56:01.532Z,15.66
2023-05-15T10:06:08.884Z,15.92
2023-05-15T10:16:15.852Z,16.09
2023-05-15T10:26:25.646Z,16.33
2023-05-15T10:36:33.306Z,16.28
2023-05-15T10:46:39.967Z,15.89
2023-05-15T10:56:46.515Z,15.75
2023-05-15T11:07:13.592Z,16.08
2023-05-15T11:17:20.224Z,16.87
2023-05-15T11:27:31.986Z,17.17
2023-05-15T11:37:49.764Z,17.26
2023-05-15T11:47:56.605Z,17.80
2023-05-15T11:58:03.539Z,17.05
2023-05-15T12:08:14.431Z,17.54
2023-05-15T12:18:21.124Z,17.68
2023-05-15T12:29:47.269Z,17.91
2023-05-15T12:39:57.615Z,17.91
2023-05-15T12:50:05.383Z,18.82
2023-05-15T13:00:13.038Z,18.84
2023-05-15T13:10:24.384Z,19.11
2023-05-15T13:20:35.025Z,18.60
2023-05-15T13:30:44.961Z,19.62
2023-05-15T13:40:51.518Z,18.97
2023-05-15T13:50:58.018Z,19.58
2023-05-15T14:01:07.290Z,18.97
2023-05-15T14:11:13.941Z,20.06
2023-05-15T14:21:20.472Z,19.09
2023-05-15T14:31:27.348Z,19.52
2023-05-15T14:41:33.907Z,19.62
2023-05-15T14:51:40.407Z,19.29
2023-05-15T15:01:47.985Z,19.42
2023-05-15T15:11:54.529Z,19.43
2023-05-15T15:22:01.135Z,19.78
2023-05-15T15:32:08.051Z,19.76
2023-05-15T15:42:14.841Z,19.48
2023-05-15T15:52:21.700Z,18.90
2023-05-15T16:02:29.602Z,18.22
2023-05-15T16:12:36.132Z,17.87
2023-05-15T16:22:43.126Z,17.34
2023-05-15T16:32:49.802Z,17.85
2023-05-15T16:42:56.640Z,17.47
2023-05-15T16:53:03.388Z,16.99
2023-05-15T17:03:10.073Z,16.43
2023-05-15T17:13:17.263Z,16.63
2023-05-15T17:23:23.789Z,16.40
2023-05-15T17:33:30.372Z,16.04
2023-05-15T17:43:36.884Z,15.90
2023-05-15T17:53:43.428Z,15.68
2023-05-15T18:03:50.078Z,15.55
2023-05-15T18:13:56.700Z,15.56
2023-05-15T18:24:03.199Z,15.50
2023-05-15T18:34:09.730Z,15.51
2023-05-15T18:44:16.345Z,15.20
2023-05-15T18:54:22.985Z,15.04
2023-05-15T19:04:29.617Z,14.94
2023-05-15T19:14:36.141Z,14.93
2023-05-15T19:24:42.667Z,14.81
2023-05-15T19:34:50.246Z,14.61
2023-05-15T19:44:56.793Z,14.43
2023-05-15T19:55:03.249Z,14.19
2023-05-15T20:05:10.295Z,14.06
2023-05-15T20:15:17.646Z,13.99
2023-05-15T20:25:24.494Z,13.92
2023-05-15T20:35:31.268Z,13.80
2023-05-15T20:45:37.948Z,13.66
2023-05-15T20:55:44.470Z,13.55
2023-05-15T21:05:56.019Z,13.49
2023-05-15T21:16:03.347Z,13.26
2023-05-15T21:26:09.858Z,13.15
2023-05-15T21:36:16.324Z,13.30
2023-05-15T21:46:22.921Z,13.16
2023-05-15T21:56:29.445Z,12.79
2023-05-15T22:06:35.972Z,12.69
2023-05-15T22:16:42.645Z,13.10
2023-05-15T22:26:49.235Z,13.17
2023-05-15T22:36:56.412Z,13.19
2023-05-15T22:47:03.051Z,12.90
2023-05-15T22:57:10.748Z,13.13
2023-05-15T23:07:19.296Z,13.20
2023-05-15T23:17:26.621Z,12.97
2023-05-15T23:27:33.865Z,13.12
2023-05-15T23:37:40.424Z,12.94
2023-05-15T23:47:47.993Z,13.12
2023-05-15T23:57:54.527Z,12.68
